createdAt,value
2022-09-26T00:01:08.151Z,16.52
2022-09-26T00:03:36.603Z,16.52
2022-09-26T00:06:06.307Z,16.52
2022-09-26T00:08:34.830Z,16.53
2022-09-26T00:11:03.967Z,16.54
2022-09-26T00:13:32.751Z,16.55
2022-09-26T00:16:00.805Z,16.56
2022-09-26T00:18:28.781Z,16.57
2022-09-26T00:21:02.986Z,16.56
2022-09-26T00:23:31.105Z,16.54
2022-09-26T00:25:59.047Z,16.53
2022-09-26T00:28:27.524Z,16.50
2022-09-26T00:30:56.095Z,16.47
2022-09-26T00:33:24.125Z,16.45
2022-09-26T00:35:52.373Z,16.45
2022-09-26T00:38:20.746Z,16.45
2022-09-26T00:40:49.766Z,16.47
2022-09-26T00:43:28.460Z,16.48
2022-09-26T00:45:59.013Z,16.48
2022-09-26T00:48:27.532Z,16.46
2022-09-26T00:50:55.554Z,16.46
2022-09-26T00:53:24.572Z,16.47
2022-09-26T00:55:54.496Z,16.46
2022-09-26T00:58:23.940Z,16.44
2022-09-26T01:00:51.931Z,16.43
2022-09-26T01:03:20.622Z,16.41
2022-09-26T01:05:48.615Z,16.41
2022-09-26T01:08:18.272Z,16.40
2022-09-26T01:10:46.195Z,16.41
2022-09-26T01:13:14.568Z,16.43
2022-09-26T01:15:42.391Z,16.46
2022-09-26T01:18:10.261Z,16.49
2022-09-26T01:20:42.696Z,16.52
2022-09-26T01:23:28.517Z,16.54
2022-09-26T01:26:08.408Z,16.55
2022-09-26T01:28:47.890Z,16.58
2022-09-26T01:31:22.409Z,16.60
2022-09-26T01:33:55.822Z,16.62
2022-09-26T01:36:28.093Z,16.61
2022-09-26T01:39:03.145Z,16.60
2022-09-26T01:41:38.613Z,16.59
2022-09-26T01:44:15.538Z,16.59
2022-09-26T01:46:46.491Z,16.58
2022-09-26T01:49:18.661Z,16.56
2022-09-26T01:51:50.724Z,16.56
2022-09-26T01:54:21.703Z,16.54
2022-09-26T01:56:51.003Z,16.50
2022-09-26T01:59:23.842Z,16.50
2022-09-26T02:01:53.497Z,16.49
2022-09-26T02:04:24.702Z,16.46
2022-09-26T02:06:54.852Z,16.47
2022-09-26T02:09:27.074Z,16.50
2022-09-26T02:11:56.387Z,16.52
2022-09-26T02:14:27.264Z,16.53
2022-09-26T02:16:58.177Z,16.54
2022-09-26T02:19:27.869Z,16.56
2022-09-26T02:21:58.075Z,16.57
2022-09-26T02:24:26.275Z,16.54
2022-09-26T02:26:54.428Z,16.53
2022-09-26T02:29:22.632Z,16.52
2022-09-26T02:31:55.245Z,16.54
2022-09-26T02:34:24.808Z,16.53
2022-09-26T02:36:54.507Z,16.51
2022-09-26T02:39:22.483Z,16.52
2022-09-26T02:41:52.609Z,16.53
2022-09-26T02:44:35.796Z,16.53
2022-09-26T02:47:21.737Z,16.54
2022-09-26T02:49:57.158Z,16.55
2022-09-26T02:52:31.353Z,16.57
2022-09-26T02:55:03.683Z,16.59
2022-09-26T02:57:37.148Z,16.58
2022-09-26T03:00:07.484Z,16.58
2022-09-26T03:02:39.312Z,16.57
2022-09-26T03:05:09.743Z,16.57
2022-09-26T03:07:41.501Z,16.58
2022-09-26T03:10:10.498Z,16.59
2022-09-26T03:12:39.804Z,16.58
2022-09-26T03:15:09.412Z,16.58
2022-09-26T03:17:41.323Z,16.58
2022-09-26T03:20:11.006Z,16.56
2022-09-26T03:22:38.995Z,16.55
2022-09-26T03:25:09.127Z,16.53
2022-09-26T03:27:39.804Z,16.49
2022-09-26T03:30:08.846Z,16.46
2022-09-26T03:32:37.211Z,16.45
2022-09-26T03:35:05.666Z,16.41
2022-09-26T03:37:34.549Z,16.39
2022-09-26T03:40:03.239Z,16.38
2022-09-26T03:42:32.950Z,16.35
2022-09-26T03:45:01.210Z,16.30
2022-09-26T03:47:29.472Z,16.26
2022-09-26T03:49:57.520Z,16.24
2022-09-26T03:52:25.563Z,16.23
2022-09-26T03:54:53.372Z,16.25
2022-09-26T03:57:21.535Z,16.25
2022-09-26T03:59:49.655Z,16.25
2022-09-26T04:02:17.455Z,16.23
2022-09-26T04:04:45.461Z,16.20
2022-09-26T04:07:18.438Z,16.18
2022-09-26T04:09:48.621Z,16.15
2022-09-26T04:12:16.751Z,16.13
2022-09-26T04:14:44.674Z,16.13
2022-09-26T04:17:15.672Z,16.13
2022-09-26T04:19:46.620Z,16.12
2022-09-26T04:22:14.448Z,16.12
2022-09-26T04:24:42.425Z,16.11
2022-09-26T04:27:26.414Z,16.12
2022-09-26T04:30:11.212Z,16.14
2022-09-26T04:32:39.594Z,16.16
2022-09-26T04:35:08.046Z,16.18
2022-09-26T04:37:37.608Z,16.20
2022-09-26T04:40:06.143Z,16.20
2022-09-26T04:42:34.179Z,16.19
2022-09-26T04:45:02.196Z,16.21
2022-09-26T04:47:30.540Z,16.22
2022-09-26T04:49:58.519Z,16.25
2022-09-26T04:52:26.951Z,16.27
2022-09-26T04:54:54.898Z,16.30
2022-09-26T04:57:22.908Z,16.33
2022-09-26T04:59:50.899Z,16.38
2022-09-26T05:02:20.104Z,16.43
2022-09-26T05:04:48.048Z,16.49
2022-09-26T05:07:15.979Z,16.52
2022-09-26T05:09:44.258Z,16.52
2022-09-26T05:12:16.678Z,16.54
2022-09-26T05:14:44.539Z,16.60
2022-09-26T05:17:12.461Z,16.68
2022-09-26T05:19:42.992Z,16.77
2022-09-26T05:22:13.971Z,16.84
2022-09-26T05:25:00.233Z,16.89
2022-09-26T05:27:28.148Z,16.94
2022-09-26T05:29:56.385Z,17.02
2022-09-26T05:32:24.567Z,17.12
2022-09-26T05:34:53.725Z,17.23
2022-09-26T05:37:21.674Z,17.32
2022-09-26T05:40:07.854Z,17.43
2022-09-26T05:42:35.862Z,17.59
2022-09-26T05:45:04.362Z,17.74
2022-09-26T05:47:35.685Z,17.87
2022-09-26T05:50:09.119Z,18.04
2022-09-26T05:52:37.651Z,18.21
2022-09-26T05:55:08.600Z,18.40
2022-09-26T05:57:39.042Z,18.59
2022-09-26T06:00:08.203Z,18.84
2022-09-26T06:02:36.291Z,19.11
2022-09-26T06:05:07.269Z,19.38
2022-09-26T06:07:36.093Z,19.62
2022-09-26T06:10:06.670Z,19.93
2022-09-26T06:12:35.213Z,20.22
2022-09-26T06:15:03.424Z,20.47
2022-09-26T06:17:31.924Z,20.69
2022-09-26T06:20:01.247Z,20.91
2022-09-26T06:22:29.506Z,21.09
2022-09-26T06:24:57.321Z,21.28
2022-09-26T06:27:25.259Z,21.43
2022-09-26T06:29:58.119Z,21.55
2022-09-26T06:32:31.019Z,21.64
2022-09-26T06:34:58.964Z,21.79
2022-09-26T06:37:28.632Z,21.94
2022-09-26T06:39:59.393Z,22.14
2022-09-26T06:42:27.777Z,22.39
2022-09-26T06:44:57.054Z,22.69
2022-09-26T06:47:24.979Z,22.94
2022-09-26T06:49:52.878Z,23.14
2022-09-26T06:52:20.950Z,23.33
2022-09-26T06:54:48.935Z,23.60
2022-09-26T06:57:22.325Z,23.83
2022-09-26T06:59:53.354Z,24.06
2022-09-26T07:02:21.292Z,24.27
2022-09-26T07:04:49.563Z,24.36
2022-09-26T07:07:20.913Z,24.49
2022-09-26T07:09:49.091Z,24.62
2022-09-26T07:12:17.093Z,24.72
2022-09-26T07:14:47.931Z,24.73
2022-09-26T07:17:18.192Z,24.69
2022-09-26T07:19:51.222Z,24.63
2022-09-26T07:22:19.069Z,24.64
2022-09-26T07:24:50.149Z,24.73
2022-09-26T07:27:18.077Z,24.91
2022-09-26T07:30:02.851Z,25.14
2022-09-26T07:32:30.924Z,25.30
2022-09-26T07:34:59.134Z,25.39
2022-09-26T07:37:28.715Z,25.35
2022-09-26T07:40:01.264Z,25.28
2022-09-26T07:42:29.777Z,25.31
2022-09-26T07:45:22.332Z,25.44
2022-09-26T07:48:06.196Z,25.65
2022-09-26T07:50:36.753Z,25.97
2022-09-26T07:53:05.862Z,26.02
2022-09-26T07:55:56.420Z,25.93
2022-09-26T07:58:25.467Z,25.96
2022-09-26T08:00:56.189Z,26.16
2022-09-26T08:03:25.724Z,26.39
2022-09-26T08:05:58.613Z,26.54
2022-09-26T08:08:27.569Z,26.64
2022-09-26T08:11:02.821Z,26.76
2022-09-26T08:13:32.483Z,26.80
2022-09-26T08:16:03.807Z,26.71
2022-09-26T08:18:33.520Z,26.57
2022-09-26T08:21:05.067Z,26.62
2022-09-26T08:23:35.241Z,26.75
2022-09-26T08:26:03.887Z,26.92
2022-09-26T08:28:31.653Z,27.14
2022-09-26T08:31:04.375Z,27.32
2022-09-26T08:33:34.659Z,27.46
2022-09-26T08:36:06.753Z,27.49
2022-09-26T08:38:35.873Z,27.48
2022-09-26T08:41:11.034Z,27.45
2022-09-26T08:43:48.507Z,27.51
2022-09-26T08:46:43.301Z,27.61
2022-09-26T08:49:26.710Z,27.69
2022-09-26T08:51:57.796Z,27.65
2022-09-26T08:54:30.944Z,27.59
2022-09-26T08:57:00.211Z,27.58
2022-09-26T08:59:31.583Z,27.45
2022-09-26T09:02:03.466Z,27.35
2022-09-26T09:04:38.714Z,27.42
2022-09-26T09:07:11.442Z,27.54
2022-09-26T09:09:39.276Z,27.61
2022-09-26T09:12:14.691Z,27.65
2022-09-26T09:15:23.539Z,27.66
2022-09-26T09:17:59.852Z,27.82
2022-09-26T09:20:34.074Z,28.00
2022-09-26T09:23:14.053Z,28.06
2022-09-26T09:25:47.585Z,27.90
2022-09-26T09:28:23.539Z,27.80
2022-09-26T09:30:56.831Z,27.84
2022-09-26T09:33:27.160Z,27.61
2022-09-26T09:35:56.632Z,27.44
2022-09-26T09:38:28.138Z,27.31
2022-09-26T09:41:02.661Z,27.29
2022-09-26T09:43:34.991Z,27.33
2022-09-26T09:46:05.096Z,27.38
2022-09-26T09:48:33.365Z,27.29
2022-09-26T09:51:14.220Z,27.12
2022-09-26T09:53:56.235Z,27.14
2022-09-26T09:56:29.924Z,27.14
2022-09-26T09:59:06.338Z,27.09
2022-09-26T10:01:36.113Z,27.10
2022-09-26T10:04:20.258Z,27.10
2022-09-26T10:06:48.494Z,27.34
2022-09-26T10:09:38.240Z,27.54
2022-09-26T10:12:10.288Z,27.76
2022-09-26T10:14:45.968Z,27.94
2022-09-26T10:17:19.267Z,28.01
2022-09-26T10:19:50.103Z,28.08
2022-09-26T10:22:25.578Z,28.22
2022-09-26T10:25:01.529Z,28.33
2022-09-26T10:27:36.309Z,28.37
2022-09-26T10:30:06.756Z,28.38
2022-09-26T10:32:45.163Z,28.36
2022-09-26T10:35:19.700Z,28.28
2022-09-26T10:37:57.492Z,28.08
2022-09-26T10:40:45.810Z,27.98
2022-09-26T10:43:30.730Z,27.90
2022-09-26T10:46:07.987Z,27.58
2022-09-26T10:48:42.422Z,27.44
2022-09-26T10:51:10.582Z,27.36
2022-09-26T10:53:40.712Z,27.25
2022-09-26T10:56:10.871Z,27.10
2022-09-26T10:58:41.176Z,26.88
2022-09-26T11:01:18.532Z,26.74
2022-09-26T11:03:46.815Z,26.67
2022-09-26T11:06:26.593Z,26.56
2022-09-26T11:08:56.712Z,26.41
2022-09-26T11:11:26.188Z,26.34
2022-09-26T11:14:03.588Z,26.18
2022-09-26T11:16:38.463Z,26.06
2022-09-26T11:19:10.896Z,26.07
2022-09-26T11:21:42.285Z,26.12
2022-09-26T11:24:15.795Z,26.13
2022-09-26T11:26:48.616Z,26.09
2022-09-26T11:29:19.762Z,25.97
2022-09-26T11:31:47.998Z,25.90
2022-09-26T11:34:19.388Z,25.79
2022-09-26T11:37:01.880Z,25.70
2022-09-26T11:39:40.346Z,25.70
2022-09-26T11:42:16.700Z,25.76
2022-09-26T11:44:53.244Z,25.78
2022-09-26T11:47:36.272Z,25.76
2022-09-26T11:50:13.440Z,25.71
2022-09-26T11:52:49.506Z,25.69
2022-09-26T11:55:25.864Z,25.73
2022-09-26T11:57:59.496Z,25.79
2022-09-26T12:00:30.918Z,25.84
2022-09-26T12:03:07.612Z,25.82
2022-09-26T12:05:43.658Z,25.78
2022-09-26T12:08:21.847Z,25.75
2022-09-26T12:10:56.168Z,25.77
2022-09-26T12:13:33.682Z,25.77
2022-09-26T12:16:09.078Z,25.72
2022-09-26T12:18:43.530Z,25.68
2022-09-26T12:21:18.670Z,25.70
2022-09-26T12:23:50.536Z,25.75
2022-09-26T12:26:22.209Z,25.80
2022-09-26T12:29:04.500Z,25.87
2022-09-26T12:31:38.512Z,25.89
2022-09-26T12:34:18.996Z,25.89
2022-09-26T12:36:54.866Z,25.87
2022-09-26T12:39:31.529Z,25.86
2022-09-26T12:42:07.480Z,25.82
2022-09-26T12:44:41.977Z,25.82
2022-09-26T12:47:20.818Z,25.86
2022-09-26T12:50:00.171Z,25.87
2022-09-26T12:52:36.915Z,25.82
2022-09-26T12:55:14.199Z,25.76
2022-09-26T12:57:47.517Z,25.72
2022-09-26T13:00:20.233Z,25.68
2022-09-26T13:03:13.649Z,25.66
2022-09-26T13:05:56.059Z,25.60
2022-09-26T13:08:30.374Z,25.56
2022-09-26T13:11:06.260Z,25.54
2022-09-26T13:13:51.103Z,25.49
2022-09-26T13:16:33.709Z,25.45
2022-09-26T13:19:05.345Z,25.46
2022-09-26T13:21:40.696Z,25.49
2022-09-26T13:24:13.310Z,25.51
2022-09-26T13:26:46.261Z,25.54
2022-09-26T13:29:26.692Z,25.56
2022-09-26T13:32:01.560Z,25.52
2022-09-26T13:34:33.916Z,25.49
2022-09-26T13:37:03.838Z,25.47
2022-09-26T13:39:37.951Z,25.43
2022-09-26T13:42:09.145Z,25.37
2022-09-26T13:44:48.957Z,25.39
2022-09-26T13:47:21.949Z,25.38
2022-09-26T13:49:56.763Z,25.38
2022-09-26T13:52:39.268Z,25.34
2022-09-26T13:55:14.189Z,25.28
2022-09-26T13:57:46.393Z,25.29
2022-09-26T14:00:38.320Z,25.29
2022-09-26T14:03:21.166Z,25.29
2022-09-26T14:05:50.322Z,25.31
2022-09-26T14:08:47.371Z,25.31
2022-09-26T14:11:24.039Z,25.30
2022-09-26T14:14:06.070Z,25.30
2022-09-26T14:16:34.729Z,25.28
2022-09-26T14:19:05.842Z,25.33
2022-09-26T14:21:44.120Z,25.37
2022-09-26T14:24:30.086Z,25.38
2022-09-26T14:27:03.232Z,25.37
2022-09-26T14:29:35.594Z,25.35
2022-09-26T14:32:05.144Z,25.35
2022-09-26T14:34:37.518Z,25.35
2022-09-26T14:37:22.968Z,25.33
2022-09-26T14:39:52.523Z,25.31
2022-09-26T14:42:24.272Z,25.28
2022-09-26T14:44:56.136Z,25.26
2022-09-26T14:47:24.981Z,25.22
2022-09-26T14:49:54.577Z,25.15
2022-09-26T14:52:24.726Z,25.06
2022-09-26T14:54:55.264Z,25.01
2022-09-26T14:57:28.362Z,24.98
2022-09-26T14:59:56.902Z,24.96
2022-09-26T15:02:28.162Z,24.94
2022-09-26T15:05:13.013Z,24.92
2022-09-26T15:07:45.336Z,24.90
2022-09-26T15:10:26.892Z,24.89
2022-09-26T15:12:57.252Z,24.87
2022-09-26T15:15:45.266Z,24.83
2022-09-26T15:18:17.715Z,24.79
2022-09-26T15:20:49.732Z,24.75
2022-09-26T15:23:21.512Z,24.73
2022-09-26T15:25:49.932Z,24.69
2022-09-26T15:28:17.960Z,24.66
2022-09-26T15:30:45.991Z,24.65
2022-09-26T15:33:16.717Z,24.62
2022-09-26T15:35:53.239Z,24.59
2022-09-26T15:38:23.651Z,24.57
2022-09-26T15:41:01.286Z,24.57
2022-09-26T15:43:33.837Z,24.58
2022-09-26T15:46:07.283Z,24.57
2022-09-26T15:48:43.671Z,24.56
2022-09-26T15:51:14.865Z,24.53
2022-09-26T15:53:44.983Z,24.47
2022-09-26T15:56:14.709Z,24.41
2022-09-26T15:58:46.537Z,24.35
2022-09-26T16:01:15.830Z,24.29
2022-09-26T16:03:46.054Z,24.23
2022-09-26T16:06:23.739Z,24.18
2022-09-26T16:08:54.087Z,24.13
2022-09-26T16:11:22.689Z,24.08
2022-09-26T16:13:51.859Z,24.02
2022-09-26T16:16:24.217Z,23.94
2022-09-26T16:18:54.660Z,23.88
2022-09-26T16:21:23.844Z,23.81
2022-09-26T16:23:52.653Z,23.73
2022-09-26T16:26:31.974Z,23.67
2022-09-26T16:29:00.205Z,23.59
2022-09-26T16:31:35.814Z,23.48
2022-09-26T16:34:16.705Z,23.43
2022-09-26T16:36:45.364Z,23.39
2022-09-26T16:39:19.387Z,23.35
2022-09-26T16:42:02.843Z,23.29
2022-09-26T16:44:35.728Z,23.25
2022-09-26T16:47:06.040Z,23.20
2022-09-26T16:49:41.621Z,23.16
2022-09-26T16:52:11.271Z,23.13
2022-09-26T16:54:39.294Z,23.09
2022-09-26T16:57:15.592Z,23.05
2022-09-26T16:59:43.546Z,23.02
2022-09-26T17:02:14.053Z,22.97
2022-09-26T17:04:43.073Z,22.94
2022-09-26T17:07:12.615Z,22.92
2022-09-26T17:09:42.139Z,22.89
2022-09-26T17:12:14.077Z,22.87
2022-09-26T17:14:42.639Z,22.84
2022-09-26T17:17:15.590Z,22.81
2022-09-26T17:19:45.705Z,22.78
2022-09-26T17:22:14.565Z,22.76
2022-09-26T17:24:42.936Z,22.72
2022-09-26T17:27:13.834Z,22.69
2022-09-26T17:29:43.383Z,22.66
2022-09-26T17:32:13.277Z,22.62
2022-09-26T17:34:41.167Z,22.61
2022-09-26T17:37:10.404Z,22.59
2022-09-26T17:39:38.441Z,22.57
2022-09-26T17:42:06.353Z,22.55
2022-09-26T17:44:36.424Z,22.52
2022-09-26T17:47:06.681Z,22.48
2022-09-26T17:49:35.927Z,22.46
2022-09-26T17:52:05.042Z,22.44
2022-09-26T17:54:42.362Z,22.40
2022-09-26T17:57:13.695Z,22.39
2022-09-26T17:59:42.063Z,22.38
2022-09-26T18:02:16.981Z,22.36
2022-09-26T18:04:45.712Z,22.35
2022-09-26T18:07:15.712Z,22.32
2022-09-26T18:09:44.131Z,22.30
2022-09-26T18:12:15.019Z,22.26
2022-09-26T18:14:43.221Z,22.22
2022-09-26T18:17:13.803Z,22.16
2022-09-26T18:19:41.875Z,22.14
2022-09-26T18:22:14.645Z,22.13
2022-09-26T18:24:44.825Z,22.11
2022-09-26T18:27:14.167Z,22.08
2022-09-26T18:29:43.276Z,22.04
2022-09-26T18:32:16.832Z,22.00
2022-09-26T18:34:44.856Z,21.97
2022-09-26T18:37:12.792Z,21.93
2022-09-26T18:39:40.944Z,21.93
2022-09-26T18:42:12.651Z,21.92
2022-09-26T18:44:42.522Z,21.91
2022-09-26T18:47:14.225Z,21.85
2022-09-26T18:49:44.158Z,21.82
2022-09-26T18:52:15.011Z,21.79
2022-09-26T18:54:44.448Z,21.77
2022-09-26T18:57:35.879Z,21.75
2022-09-26T19:00:04.911Z,21.67
2022-09-26T19:02:37.683Z,21.58
2022-09-26T19:05:07.281Z,21.48
2022-09-26T19:07:35.632Z,21.39
2022-09-26T19:10:03.850Z,21.34
2022-09-26T19:12:32.042Z,21.32
2022-09-26T19:15:00.244Z,21.28
2022-09-26T19:17:28.335Z,21.20
2022-09-26T19:19:56.568Z,21.16
2022-09-26T19:22:25.645Z,21.11
2022-09-26T19:24:56.025Z,21.05
2022-09-26T19:27:25.768Z,21.03
2022-09-26T19:29:56.880Z,21.04
2022-09-26T19:32:33.061Z,21.06
2022-09-26T19:35:02.882Z,21.08
2022-09-26T19:37:30.953Z,21.08
2022-09-26T19:39:59.464Z,21.09
2022-09-26T19:42:27.511Z,21.11
2022-09-26T19:44:55.920Z,21.13
2022-09-26T19:47:24.052Z,21.12
2022-09-26T19:49:52.754Z,21.12
2022-09-26T19:52:21.562Z,21.12
2022-09-26T19:54:49.847Z,21.12
2022-09-26T19:57:18.999Z,21.10
2022-09-26T19:59:47.829Z,21.05
2022-09-26T20:02:17.038Z,21.04
2022-09-26T20:04:45.265Z,21.04
2022-09-26T20:07:16.846Z,21.03
2022-09-26T20:09:45.418Z,21.02
2022-09-26T20:12:13.992Z,21.00
2022-09-26T20:14:45.696Z,20.98
2022-09-26T20:17:18.919Z,20.95
2022-09-26T20:19:48.049Z,20.95
2022-09-26T20:22:16.795Z,20.96
2022-09-26T20:24:47.681Z,20.97
2022-09-26T20:27:17.901Z,20.97
2022-09-26T20:30:12.588Z,20.96
2022-09-26T20:32:43.353Z,20.92
2022-09-26T20:35:13.470Z,20.91
2022-09-26T20:37:41.887Z,20.85
2022-09-26T20:40:13.374Z,20.78
2022-09-26T20:42:44.576Z,20.70
2022-09-26T20:45:16.157Z,20.63
2022-09-26T20:47:44.856Z,20.56
2022-09-26T20:50:15.064Z,20.53
2022-09-26T20:52:43.173Z,20.51
2022-09-26T20:55:15.092Z,20.48
2022-09-26T20:57:43.243Z,20.43
2022-09-26T21:00:15.043Z,20.36
2022-09-26T21:02:43.685Z,20.28
2022-09-26T21:05:15.684Z,20.21
2022-09-26T21:07:44.153Z,20.16
2022-09-26T21:10:22.779Z,20.13
2022-09-26T21:12:50.857Z,20.09
2022-09-26T21:15:19.422Z,20.08
2022-09-26T21:17:47.793Z,20.08
2022-09-26T21:20:17.097Z,20.07
2022-09-26T21:22:45.122Z,20.07
2022-09-26T21:25:17.188Z,20.04
2022-09-26T21:27:45.516Z,20.00
2022-09-26T21:30:14.676Z,20.01
2022-09-26T21:32:44.848Z,20.02
2022-09-26T21:35:14.446Z,20.05
2022-09-26T21:37:42.668Z,20.08
2022-09-26T21:40:11.200Z,20.11
2022-09-26T21:42:41.027Z,20.13
2022-09-26T21:45:13.843Z,20.16
2022-09-26T21:47:42.530Z,20.19
2022-09-26T21:50:12.527Z,20.18
2022-09-26T21:52:44.098Z,20.11
2022-09-26T21:55:13.881Z,20.10
2022-09-26T21:57:43.271Z,20.10
2022-09-26T22:00:13.278Z,20.09
2022-09-26T22:02:41.581Z,20.06
2022-09-26T22:05:10.243Z,20.01
2022-09-26T22:07:39.042Z,20.00
2022-09-26T22:10:07.733Z,20.00
2022-09-26T22:12:35.872Z,20.02
2022-09-26T22:15:06.472Z,20.05
2022-09-26T22:17:34.536Z,20.08
2022-09-26T22:20:03.099Z,20.07
2022-09-26T22:22:31.829Z,20.08
2022-09-26T22:25:03.778Z,20.06
2022-09-26T22:27:32.639Z,20.00
2022-09-26T22:30:00.855Z,19.95
2022-09-26T22:32:28.945Z,19.93
2022-09-26T22:34:56.940Z,19.91
2022-09-26T22:37:25.161Z,19.93
2022-09-26T22:39:53.125Z,19.95
2022-09-26T22:42:21.255Z,19.96
2022-09-26T22:44:49.188Z,19.96
2022-09-26T22:47:17.184Z,19.96
2022-09-26T22:49:45.380Z,19.98
2022-09-26T22:52:13.471Z,19.97
2022-09-26T22:54:41.500Z,19.97
2022-09-26T22:57:09.621Z,19.99
2022-09-26T22:59:38.539Z,19.99
2022-09-26T23:02:06.590Z,19.91
2022-09-26T23:04:46.691Z,19.85
2022-09-26T23:07:15.563Z,19.77
2022-09-26T23:09:43.602Z,19.72
2022-09-26T23:12:12.391Z,19.68
2022-09-26T23:14:41.073Z,19.70
2022-09-26T23:17:09.309Z,19.70
2022-09-26T23:19:37.630Z,19.68
2022-09-26T23:22:06.176Z,19.60
2022-09-26T23:24:34.390Z,19.53
2022-09-26T23:27:02.541Z,19.51
2022-09-26T23:29:30.449Z,19.45
2022-09-26T23:31:58.484Z,19.37
2022-09-26T23:34:26.432Z,19.29
2022-09-26T23:36:54.702Z,19.22
2022-09-26T23:39:23.148Z,19.21
2022-09-26T23:41:51.220Z,19.16
2022-09-26T23:44:19.341Z,19.11
2022-09-26T23:46:47.389Z,19.06
2022-09-26T23:49:15.648Z,18.99
2022-09-26T23:51:43.808Z,18.93
2022-09-26T23:54:11.809Z,18.92
2022-09-26T23:56:40.600Z,18.89
2022-09-26T23:59:08.744Z,18.85
